Time;durP1;ratioP1;P1;durP2;ratioP2;P2;SDS_P1;SDS_P2;PMS_P1;PMS_P2;Temp;Humidity;BMP_temperature;BMP_pressure;BME280_temperature;BME280_humidity;BME280_pressure;Samples;Min_cycle;Max_cycle;Signal;HPM_P1;HPM_P2
2022/03/05 00:01:06;;;;;;;34.67;18.95;;;;;;;;;;5029622;28;21293;-92
2022/03/05 00:03:34;;;;;;;31.73;18.27;;;;;;;;;;5012303;28;20870;-91
2022/03/05 00:06:01;;;;;;;30.10;18.13;;;;;;;;;;5029675;28;20413;-90
2022/03/05 00:08:29;;;;;;;35.53;19.52;;;;;;;;;;5032663;28;20421;-90
2022/03/05 00:10:56;;;;;;;30.92;18.67;;;;;;;;;;5036732;28;20433;-88
2022/03/05 00:13:25;;;;;;;34.17;19.52;;;;;;;;;;5033351;28;20411;-91
2022/03/05 00:15:52;;;;;;;34.03;19.50;;;;;;;;;;5035317;28;20924;-90
2022/03/05 00:18:19;;;;;;;31.10;18.40;;;;;;;;;;5030245;28;20510;-91
2022/03/05 00:20:46;;;;;;;35.90;19.77;;;;;;;;;;5030416;28;20463;-92
2022/03/05 00:23:14;;;;;;;32.92;19.88;;;;;;;;;;5029616;28;20413;-91
2022/03/05 00:25:42;;;;;;;33.75;20.13;;;;;;;;;;5032495;28;20895;-91
2022/03/05 00:28:09;;;;;;;34.47;20.58;;;;;;;;;;5048149;28;21068;-89
2022/03/05 00:30:38;;;;;;;35.53;20.67;;;;;;;;;;5029793;28;20808;-90
2022/03/05 00:33:05;;;;;;;36.05;20.75;;;;;;;;;;5035280;28;20412;-91
2022/03/05 00:35:32;;;;;;;36.85;21.33;;;;;;;;;;5035701;28;20413;-90
2022/03/05 00:37:59;;;;;;;34.85;19.88;;;;;;;;;;5037862;28;20411;-90
2022/03/05 00:40:26;;;;;;;36.97;21.67;;;;;;;;;;5034794;28;20436;-91
2022/03/05 00:42:53;;;;;;;33.58;20.23;;;;;;;;;;5063025;28;20399;-93
2022/03/05 00:45:20;;;;;;;33.30;20.13;;;;;;;;;;5049773;28;20396;-89
2022/03/05 00:47:49;;;;;;;32.50;20.30;;;;;;;;;;5039595;28;20433;-89
2022/03/05 00:50:15;;;;;;;35.25;20.15;;;;;;;;;;5028231;28;20443;-89
2022/03/05 00:52:42;;;;;;;34.97;20.23;;;;;;;;;;5024932;28;20416;-92
2022/03/05 00:55:10;;;;;;;39.15;20.23;;;;;;;;;;5034645;28;20414;-91
2022/03/05 00:57:37;;;;;;;36.70;20.50;;;;;;;;;;5037627;28;20413;-91
2022/03/05 01:00:06;;;;;;;37.75;20.33;;;;;;;;;;5028356;28;20425;-90
2022/03/05 01:02:33;;;;;;;35.88;20.13;;;;;;;;;;5028604;28;20408;-90
2022/03/05 01:05:01;;;;;;;34.00;20.15;;;;;;;;;;5037309;28;20396;-90
2022/03/05 01:07:28;;;;;;;35.28;21.23;;;;;;;;;;5030655;28;20936;-92
2022/03/05 01:09:55;;;;;;;36.45;20.67;;;;;;;;;;5030464;28;20486;-88
2022/03/05 01:12:22;;;;;;;34.28;20.55;;;;;;;;;;5030564;28;20889;-90
2022/03/05 01:14:50;;;;;;;34.40;20.63;;;;;;;;;;5028222;28;20842;-90
2022/03/05 01:17:18;;;;;;;33.05;20.60;;;;;;;;;;5031060;28;21298;-91
2022/03/05 01:19:45;;;;;;;32.92;20.17;;;;;;;;;;5042912;28;20423;-91
2022/03/05 01:22:14;;;;;;;36.28;21.35;;;;;;;;;;5036429;28;20412;-89
2022/03/05 01:24:40;;;;;;;35.75;20.90;;;;;;;;;;5032303;28;20471;-92
2022/03/05 01:27:08;;;;;;;33.22;20.50;;;;;;;;;;5028235;28;20409;-90
2022/03/05 01:29:35;;;;;;;34.58;20.48;;;;;;;;;;5027802;28;20421;-90
2022/03/05 01:32:02;;;;;;;37.58;21.30;;;;;;;;;;5027750;28;20412;-90
2022/03/05 01:34:29;;;;;;;35.38;20.80;;;;;;;;;;5031583;28;20416;-91
2022/03/05 01:36:56;;;;;;;39.33;22.00;;;;;;;;;;5027964;28;20409;-90
2022/03/05 01:39:24;;;;;;;33.63;20.13;;;;;;;;;;5028137;28;20460;-90
2022/03/05 01:41:54;;;;;;;33.40;20.45;;;;;;;;;;5027927;28;20417;-90
2022/03/05 01:44:22;;;;;;;34.72;21.33;;;;;;;;;;5011637;28;20447;-90
2022/03/05 01:46:49;;;;;;;36.23;20.87;;;;;;;;;;5034367;28;20813;-90
2022/03/05 01:49:16;;;;;;;36.47;21.52;;;;;;;;;;5038115;28;20420;-90
2022/03/05 01:51:44;;;;;;;33.78;20.45;;;;;;;;;;5031460;28;20963;-90
2022/03/05 01:54:11;;;;;;;34.20;20.38;;;;;;;;;;5041296;28;20409;-90
2022/03/05 01:56:41;;;;;;;34.45;20.48;;;;;;;;;;5030560;28;20417;-90
2022/03/05 01:59:08;;;;;;;32.55;19.88;;;;;;;;;;5035966;28;20413;-91
2022/03/05 02:01:35;;;;;;;34.25;20.20;;;;;;;;;;5040632;28;20413;-88
2022/03/05 02:04:03;;;;;;;36.30;21.15;;;;;;;;;;5039489;28;20893;-88
2022/03/05 02:06:30;;;;;;;37.00;20.67;;;;;;;;;;5027532;28;20970;-90
2022/03/05 02:08:58;;;;;;;34.58;20.75;;;;;;;;;;5037508;28;20407;-90
2022/03/05 02:11:25;;;;;;;33.10;20.20;;;;;;;;;;5041096;28;21048;-91
2022/03/05 02:13:53;;;;;;;37.15;20.92;;;;;;;;;;5034475;28;20419;-90
2022/03/05 02:16:21;;;;;;;37.30;21.35;;;;;;;;;;5030576;28;20773;-90
2022/03/05 02:18:48;;;;;;;33.88;20.48;;;;;;;;;;5033049;28;20411;-90
2022/03/05 02:21:17;;;;;;;35.45;20.58;;;;;;;;;;5027418;28;20397;-91
2022/03/05 02:23:45;;;;;;;33.67;20.90;;;;;;;;;;5027307;28;20459;-91
2022/03/05 02:26:12;;;;;;;34.30;21.10;;;;;;;;;;5027136;28;20402;-91
2022/03/05 02:28:40;;;;;;;37.28;21.70;;;;;;;;;;5026026;28;21035;-91
2022/03/05 02:31:08;;;;;;;36.13;20.55;;;;;;;;;;5025275;28;20460;-89
2022/03/05 02:33:35;;;;;;;33.42;20.30;;;;;;;;;;5031099;28;20420;-90
2022/03/05 02:36:04;;;;;;;37.88;21.13;;;;;;;;;;5027622;28;20451;-91
2022/03/05 02:38:32;;;;;;;35.10;19.60;;;;;;;;;;5027805;28;20919;-91
2022/03/05 02:40:59;;;;;;;37.08;21.77;;;;;;;;;;5029481;28;20400;-91
2022/03/05 02:43:26;;;;;;;30.67;19.13;;;;;;;;;;5027457;28;20488;-91
2022/03/05 02:45:54;;;;;;;32.05;19.20;;;;;;;;;;5027492;28;20414;-90
2022/03/05 02:48:22;;;;;;;32.90;19.63;;;;;;;;;;5030404;28;20393;-92
2022/03/05 02:50:50;;;;;;;31.67;18.63;;;;;;;;;;5026212;28;20428;-91
2022/03/05 02:53:17;;;;;;;34.17;19.95;;;;;;;;;;5031485;28;20433;-89
2022/03/05 02:55:47;;;;;;;34.90;19.77;;;;;;;;;;5026625;28;20531;-90
2022/03/05 02:58:14;;;;;;;30.60;18.70;;;;;;;;;;5022217;28;20414;-90
2022/03/05 03:00:42;;;;;;;30.00;18.50;;;;;;;;;;5037450;28;20412;-91
2022/03/05 03:03:08;;;;;;;32.80;19.23;;;;;;;;;;5047095;28;20470;-90
2022/03/05 03:05:35;;;;;;;33.70;19.45;;;;;;;;;;5034657;28;20409;-89
2022/03/05 03:08:02;;;;;;;33.20;19.23;;;;;;;;;;5046256;28;20400;-91
2022/03/05 03:10:29;;;;;;;35.30;19.73;;;;;;;;;;5047370;28;20415;-91
2022/03/05 03:12:58;;;;;;;33.63;19.33;;;;;;;;;;5044798;28;20399;-89
2022/03/05 03:15:25;;;;;;;30.83;18.00;;;;;;;;;;5039364;28;20966;-89
2022/03/05 03:17:53;;;;;;;32.97;18.63;;;;;;;;;;5051468;28;20426;-89
2022/03/05 03:20:21;;;;;;;31.67;18.63;;;;;;;;;;5050561;28;20399;-92
2022/03/05 03:22:49;;;;;;;31.33;19.15;;;;;;;;;;5039942;28;20405;-89
2022/03/05 03:25:16;;;;;;;31.00;19.02;;;;;;;;;;5032938;28;20436;-91
2022/03/05 03:27:43;;;;;;;29.63;18.02;;;;;;;;;;5050304;28;20461;-90
2022/03/05 03:30:14;;;;;;;30.85;18.90;;;;;;;;;;5051369;28;20419;-90
2022/03/05 03:32:41;;;;;;;30.73;17.73;;;;;;;;;;5051488;28;20404;-91
2022/03/05 03:35:09;;;;;;;29.33;18.30;;;;;;;;;;5051468;28;20408;-89
2022/03/05 03:37:37;;;;;;;31.38;18.58;;;;;;;;;;5050604;28;20399;-90
2022/03/05 03:40:07;;;;;;;30.93;17.87;;;;;;;;;;5042636;28;20416;-91
2022/03/05 03:42:35;;;;;;;32.22;18.48;;;;;;;;;;5063606;28;20388;-91
2022/03/05 03:45:04;;;;;;;34.38;19.45;;;;;;;;;;5049363;28;20407;-88
2022/03/05 03:47:33;;;;;;;32.47;18.73;;;;;;;;;;5036916;28;20489;-91
2022/03/05 03:50:00;;;;;;;32.40;19.73;;;;;;;;;;5029302;28;20409;-91
2022/03/05 03:52:27;;;;;;;33.67;18.95;;;;;;;;;;5030212;28;20462;-90
2022/03/05 03:54:54;;;;;;;34.03;19.35;;;;;;;;;;5033544;28;20400;-91
2022/03/05 03:57:21;;;;;;;30.77;18.40;;;;;;;;;;5033818;28;20886;-89
2022/03/05 03:59:51;;;;;;;32.25;19.50;;;;;;;;;;5029770;28;20401;-91
2022/03/05 04:02:19;;;;;;;36.80;20.10;;;;;;;;;;5044529;28;20408;-90
2022/03/05 04:04:47;;;;;;;33.63;19.00;;;;;;;;;;5038773;28;20416;-91
2022/03/05 04:09:58;;;;;;;33.70;19.00;;;;;;;;;;5033126;28;20399;-90
2022/03/05 04:12:25;;;;;;;32.00;18.75;;;;;;;;;;5029841;28;20486;-91
2022/03/05 04:14:54;;;;;;;32.88;19.65;;;;;;;;;;5040265;28;20483;-92
2022/03/05 04:17:21;;;;;;;33.08;18.92;;;;;;;;;;5050128;28;20408;-92
2022/03/05 04:19:50;;;;;;;31.73;19.90;;;;;;;;;;5049456;28;20412;-92
2022/03/05 04:22:17;;;;;;;33.35;19.02;;;;;;;;;;5049326;28;20457;-91
2022/03/05 04:24:44;;;;;;;31.30;18.53;;;;;;;;;;5045365;28;20418;-91
2022/03/05 04:27:11;;;;;;;33.40;19.67;;;;;;;;;;5045278;28;20481;-92
2022/03/05 04:29:38;;;;;;;33.58;19.38;;;;;;;;;;5047963;28;20404;-90
2022/03/05 04:32:06;;;;;;;36.85;20.50;;;;;;;;;;5029752;28;21146;-91
2022/03/05 04:34:33;;;;;;;40.75;19.90;;;;;;;;;;5038530;28;20440;-91
2022/03/05 04:37:02;;;;;;;37.15;19.98;;;;;;;;;;5036610;28;20409;-89
2022/03/05 04:39:29;;;;;;;36.55;20.48;;;;;;;;;;5029109;28;20456;-91
2022/03/05 04:41:56;;;;;;;32.50;19.23;;;;;;;;;;5029824;28;20405;-91
2022/03/05 04:44:23;;;;;;;34.83;20.05;;;;;;;;;;5032694;28;20405;-91
2022/03/05 04:46:50;;;;;;;33.13;19.63;;;;;;;;;;5029800;28;20409;-90
2022/03/05 04:49:17;;;;;;;34.03;19.63;;;;;;;;;;5039612;28;20403;-90
2022/03/05 04:51:44;;;;;;;34.45;19.30;;;;;;;;;;5046499;28;20419;-90
2022/03/05 04:54:12;;;;;;;31.92;19.08;;;;;;;;;;5028752;28;20413;-90
2022/03/05 04:56:39;;;;;;;34.05;19.33;;;;;;;;;;5039607;28;20470;-92
2022/03/05 04:59:06;;;;;;;36.05;19.65;;;;;;;;;;5031972;28;20417;-92
2022/03/05 05:01:33;;;;;;;34.95;19.42;;;;;;;;;;5029465;28;20397;-91
2022/03/05 05:04:00;;;;;;;33.92;19.00;;;;;;;;;;5028438;28;20425;-93
2022/03/05 05:06:27;;;;;;;31.92;19.00;;;;;;;;;;5038106;28;20890;-92
2022/03/05 05:08:54;;;;;;;33.67;18.98;;;;;;;;;;5032122;28;20403;-93
2022/03/05 05:11:22;;;;;;;36.08;20.42;;;;;;;;;;5036175;28;20415;-92
2022/03/05 05:13:49;;;;;;;31.90;19.77;;;;;;;;;;5031123;28;20471;-92
2022/03/05 05:16:16;;;;;;;31.15;18.85;;;;;;;;;;5028743;28;20414;-92
2022/03/05 05:19:24;;;;;;;31.40;18.73;;;;;;;;;;5028859;28;20432;-91
2022/03/05 05:21:30;;;;;;;33.60;18.67;;;;;;;;;;5039765;28;20400;-92
2022/03/05 05:23:57;;;;;;;32.20;20.02;;;;;;;;;;5028895;28;20417;-89
2022/03/05 05:26:25;;;;;;;31.00;19.30;;;;;;;;;;5032174;28;20395;-93
2022/03/05 05:28:52;;;;;;;32.53;19.50;;;;;;;;;;5014687;28;20409;-91
2022/03/05 05:31:19;;;;;;;32.85;19.92;;;;;;;;;;5036132;28;20434;-92
2022/03/05 05:33:46;;;;;;;34.47;20.00;;;;;;;;;;5040994;28;22012;-92
2022/03/05 05:36:13;;;;;;;35.50;20.95;;;;;;;;;;5031906;28;20878;-93
2022/03/05 05:38:41;;;;;;;34.75;19.90;;;;;;;;;;5028614;28;20398;-92
2022/03/05 05:41:08;;;;;;;33.67;20.08;;;;;;;;;;5027413;28;20409;-92
2022/03/05 05:43:37;;;;;;;35.28;20.85;;;;;;;;;;5028376;28;20420;-92
2022/03/05 05:46:04;;;;;;;34.30;20.08;;;;;;;;;;5045868;28;20419;-92
2022/03/05 05:48:30;;;;;;;36.15;20.67;;;;;;;;;;5047165;28;20880;-92
2022/03/05 05:50:57;;;;;;;39.00;21.75;;;;;;;;;;5029034;28;20905;-92
2022/03/05 05:53:25;;;;;;;37.97;21.67;;;;;;;;;;5026401;28;20441;-93
2022/03/05 05:55:53;;;;;;;37.47;22.13;;;;;;;;;;5028174;28;20447;-92
2022/03/05 05:58:20;;;;;;;37.92;22.05;;;;;;;;;;5028373;28;20897;-91
2022/03/05 06:00:48;;;;;;;40.75;22.83;;;;;;;;;;5029644;28;20398;-91
2022/03/05 06:03:15;;;;;;;42.00;23.27;;;;;;;;;;5033648;28;20754;-92
2022/03/05 06:05:42;;;;;;;41.88;22.90;;;;;;;;;;5027922;28;20901;-91
2022/03/05 06:08:09;;;;;;;41.22;22.92;;;;;;;;;;5027808;28;20405;-92
2022/03/05 06:10:36;;;;;;;40.97;24.23;;;;;;;;;;5018903;28;20424;-93
2022/03/05 06:13:03;;;;;;;42.25;23.63;;;;;;;;;;5029337;28;20405;-91
2022/03/05 06:15:30;;;;;;;37.95;22.23;;;;;;;;;;5027656;28;21075;-92
2022/03/05 06:17:58;;;;;;;42.50;23.55;;;;;;;;;;5027506;28;20409;-92
2022/03/05 06:20:25;;;;;;;45.25;24.30;;;;;;;;;;5027071;28;20418;-92
2022/03/05 06:22:52;;;;;;;45.53;23.92;;;;;;;;;;5039186;28;20444;-92
2022/03/05 06:25:20;;;;;;;43.40;23.70;;;;;;;;;;5036673;28;20854;-92
2022/03/05 06:27:47;;;;;;;43.72;23.48;;;;;;;;;;5028808;28;21170;-92
2022/03/05 06:30:16;;;;;;;44.40;23.45;;;;;;;;;;5031225;28;20409;-92
2022/03/05 06:32:43;;;;;;;40.83;23.60;;;;;;;;;;5031357;28;20452;-91
2022/03/05 06:35:11;;;;;;;40.22;23.48;;;;;;;;;;5040500;28;20460;-91
2022/03/05 06:37:38;;;;;;;40.45;23.38;;;;;;;;;;5049460;28;20409;-90
2022/03/05 06:40:10;;;;;;;38.80;22.87;;;;;;;;;;5033381;28;20409;-93
2022/03/05 06:42:37;;;;;;;38.75;21.67;;;;;;;;;;5025234;28;20417;-93
2022/03/05 06:45:05;;;;;;;36.40;21.70;;;;;;;;;;5027518;28;20479;-93
2022/03/05 06:47:32;;;;;;;39.35;22.48;;;;;;;;;;5028804;28;20443;-92
2022/03/05 06:50:07;;;;;;;39.63;22.58;;;;;;;;;;5030986;28;20428;-91
2022/03/05 06:52:35;;;;;;;39.45;22.30;;;;;;;;;;5031851;28;20425;-90
2022/03/05 06:55:03;;;;;;;37.08;22.63;;;;;;;;;;5036050;28;20415;-91
2022/03/05 06:57:30;;;;;;;36.60;21.47;;;;;;;;;;5034976;28;20791;-91
2022/03/05 06:59:57;;;;;;;34.00;20.85;;;;;;;;;;5034955;28;20411;-91
2022/03/05 07:02:24;;;;;;;37.35;21.77;;;;;;;;;;5033667;28;20639;-91
2022/03/05 07:04:51;;;;;;;34.05;20.88;;;;;;;;;;5040660;28;20410;-91
2022/03/05 07:07:18;;;;;;;35.90;21.92;;;;;;;;;;5038865;28;20404;-91
2022/03/05 07:09:46;;;;;;;35.70;21.48;;;;;;;;;;5039538;28;20417;-90
2022/03/05 07:12:13;;;;;;;38.28;22.70;;;;;;;;;;5038850;28;20492;-91
2022/03/05 07:14:40;;;;;;;41.03;22.55;;;;;;;;;;5038191;28;20408;-91
2022/03/05 07:17:07;;;;;;;37.67;22.75;;;;;;;;;;5039330;28;20816;-90
2022/03/05 07:19:34;;;;;;;38.72;23.42;;;;;;;;;;5040404;28;20408;-90
2022/03/05 07:22:01;;;;;;;41.65;22.88;;;;;;;;;;5039659;28;20414;-91
2022/03/05 07:24:28;;;;;;;39.70;23.40;;;;;;;;;;5034078;28;20416;-91
2022/03/05 07:26:56;;;;;;;43.13;23.70;;;;;;;;;;5041673;28;20848;-91
2022/03/05 07:29:23;;;;;;;38.20;22.77;;;;;;;;;;5034678;28;20415;-92
2022/03/05 07:31:50;;;;;;;38.42;22.50;;;;;;;;;;5038405;28;20444;-91
2022/03/05 07:34:17;;;;;;;37.75;23.13;;;;;;;;;;5036486;28;20412;-91
2022/03/05 07:36:44;;;;;;;40.15;23.65;;;;;;;;;;5039405;28;20421;-91
2022/03/05 07:39:11;;;;;;;39.47;22.70;;;;;;;;;;5039480;28;20410;-92
2022/03/05 07:41:38;;;;;;;36.72;23.23;;;;;;;;;;5040083;28;20413;-91
2022/03/05 07:44:08;;;;;;;38.90;23.33;;;;;;;;;;5039323;28;20409;-91
2022/03/05 07:46:37;;;;;;;42.20;24.60;;;;;;;;;;5039545;28;20414;-90
2022/03/05 07:49:05;;;;;;;45.20;26.45;;;;;;;;;;5038842;28;20420;-91
2022/03/05 07:51:36;;;;;;;45.57;26.07;;;;;;;;;;5038241;28;20446;-91
2022/03/05 07:54:03;;;;;;;42.70;23.73;;;;;;;;;;5038534;28;20490;-91
2022/03/05 07:56:31;;;;;;;37.75;21.73;;;;;;;;;;5028788;28;20413;-91
2022/03/05 07:58:58;;;;;;;37.90;21.05;;;;;;;;;;5031226;28;20401;-89
2022/03/05 08:01:26;;;;;;;36.83;20.85;;;;;;;;;;5028889;28;20413;-90
2022/03/05 08:03:53;;;;;;;33.47;20.40;;;;;;;;;;5036009;28;20412;-90
2022/03/05 08:06:50;;;;;;;34.42;20.77;;;;;;;;;;5029443;28;20409;-89
2022/03/05 08:09:17;;;;;;;34.50;19.95;;;;;;;;;;5025882;28;20406;-91
2022/03/05 08:11:53;;;;;;;32.07;20.13;;;;;;;;;;5042808;28;20403;-92
2022/03/05 08:14:20;;;;;;;34.92;19.85;;;;;;;;;;5020642;28;20449;-90
2022/03/05 08:16:48;;;;;;;33.13;19.65;;;;;;;;;;5038022;28;20431;-89
2022/03/05 08:19:15;;;;;;;28.63;18.07;;;;;;;;;;5033315;28;20475;-89
2022/03/05 08:21:44;;;;;;;30.08;17.73;;;;;;;;;;5033964;28;20421;-89
2022/03/05 08:24:11;;;;;;;29.75;18.73;;;;;;;;;;5032574;28;20425;-92
2022/03/05 08:26:38;;;;;;;32.33;18.83;;;;;;;;;;5033228;28;20409;-92
2022/03/05 08:29:05;;;;;;;28.95;17.55;;;;;;;;;;5031887;28;20391;-91
2022/03/05 08:31:46;;;;;;;24.13;15.40;;;;;;;;;;5039161;28;20408;-93
2022/03/05 08:34:14;;;;;;;26.10;16.50;;;;;;;;;;5035300;28;20413;-89
2022/03/05 08:36:41;;;;;;;28.65;16.92;;;;;;;;;;5029574;28;20417;-89
2022/03/05 08:39:08;;;;;;;26.47;16.87;;;;;;;;;;5035739;28;20429;-88
2022/03/05 08:41:35;;;;;;;27.50;16.25;;;;;;;;;;5030597;28;20411;-88
2022/03/05 08:44:02;;;;;;;20.08;12.85;;;;;;;;;;5029021;28;20814;-89
2022/03/05 08:46:29;;;;;;;19.08;12.52;;;;;;;;;;5035237;28;20406;-89
2022/03/05 08:48:56;;;;;;;22.75;13.23;;;;;;;;;;5029626;28;20401;-89
2022/03/05 08:51:24;;;;;;;22.30;12.85;;;;;;;;;;5029001;28;20415;-89
2022/03/05 08:53:51;;;;;;;23.33;13.52;;;;;;;;;;5037591;28;20887;-88
2022/03/05 08:56:18;;;;;;;20.92;13.15;;;;;;;;;;5034232;28;20417;-88
2022/03/05 08:58:45;;;;;;;23.40;13.50;;;;;;;;;;5032963;28;20401;-89
2022/03/05 09:01:12;;;;;;;22.08;12.65;;;;;;;;;;5031873;28;20462;-89
2022/03/05 09:03:39;;;;;;;17.15;11.35;;;;;;;;;;5034998;28;20401;-89
2022/03/05 09:06:05;;;;;;;17.20;11.13;;;;;;;;;;5036650;28;20419;-89
2022/03/05 09:08:35;;;;;;;16.55;10.50;;;;;;;;;;5031733;28;20417;-89
2022/03/05 09:11:02;;;;;;;16.38;10.60;;;;;;;;;;5033037;28;20407;-89
2022/03/05 09:13:28;;;;;;;16.92;10.80;;;;;;;;;;5032106;28;20422;-88
2022/03/05 09:15:55;;;;;;;18.95;11.82;;;;;;;;;;5030430;28;20412;-88
2022/03/05 09:18:22;;;;;;;18.48;11.23;;;;;;;;;;5029274;28;20415;-87
2022/03/05 09:20:49;;;;;;;17.23;10.43;;;;;;;;;;5033803;28;20443;-86
2022/03/05 09:23:16;;;;;;;16.48;11.38;;;;;;;;;;5032252;28;20781;-86
2022/03/05 09:25:45;;;;;;;16.80;11.52;;;;;;;;;;5026301;28;20545;-87
2022/03/05 09:28:12;;;;;;;19.10;11.77;;;;;;;;;;5033098;28;20428;-86
2022/03/05 09:30:39;;;;;;;19.67;11.93;;;;;;;;;;5036497;28;20893;-87
2022/03/05 09:33:07;;;;;;;17.52;10.90;;;;;;;;;;5034230;28;21302;-87
2022/03/05 09:35:34;;;;;;;17.10;10.82;;;;;;;;;;5036295;28;20752;-86
2022/03/05 09:38:01;;;;;;;15.70;10.40;;;;;;;;;;5032241;28;20412;-86
2022/03/05 09:40:28;;;;;;;17.92;11.32;;;;;;;;;;5032948;28;20404;-88
2022/03/05 09:42:56;;;;;;;18.55;11.43;;;;;;;;;;5042204;28;20395;-88
2022/03/05 09:45:23;;;;;;;16.75;10.90;;;;;;;;;;5051875;28;20407;-88
2022/03/05 09:47:50;;;;;;;17.73;11.82;;;;;;;;;;5050920;28;20412;-92
2022/03/05 09:50:17;;;;;;;18.65;11.68;;;;;;;;;;5026472;28;20412;-90
2022/03/05 09:52:44;;;;;;;18.07;11.53;;;;;;;;;;5036986;28;20425;-91
2022/03/05 09:55:11;;;;;;;17.70;11.35;;;;;;;;;;5037200;28;20412;-91
2022/03/05 09:57:39;;;;;;;18.60;11.90;;;;;;;;;;5037956;28;20868;-90
2022/03/05 10:00:09;;;;;;;18.50;12.23;;;;;;;;;;5037874;28;20768;-91
2022/03/05 10:02:36;;;;;;;19.20;12.15;;;;;;;;;;5037879;28;20407;-92
2022/03/05 10:05:20;;;;;;;18.73;12.15;;;;;;;;;;5036900;28;20423;-91
2022/03/05 10:08:12;;;;;;;21.77;13.02;;;;;;;;;;5039515;28;20419;-92
2022/03/05 10:11:12;;;;;;;18.30;11.57;;;;;;;;;;5037411;28;20413;-92
2022/03/05 10:13:40;;;;;;;20.67;13.27;;;;;;;;;;5031735;28;20790;-92
2022/03/05 10:16:24;;;;;;;22.20;12.97;;;;;;;;;;5033328;28;20480;-93
2022/03/05 10:18:51;;;;;;;19.10;12.95;;;;;;;;;;5032405;28;20419;-76
2022/03/05 10:21:19;;;;;;;19.33;12.38;;;;;;;;;;5032611;28;20949;-76
2022/03/05 10:23:48;;;;;;;20.77;13.07;;;;;;;;;;5036437;28;20462;-86
2022/03/05 10:26:21;;;;;;;18.48;12.48;;;;;;;;;;5035745;28;20707;-76
2022/03/05 10:28:48;;;;;;;20.58;12.77;;;;;;;;;;5042250;28;20418;-85
2022/03/05 10:31:16;;;;;;;19.23;12.63;;;;;;;;;;5036562;28;20463;-83
2022/03/05 10:33:45;;;;;;;21.15;13.05;;;;;;;;;;5041054;28;20421;-83
2022/03/05 10:36:19;;;;;;;18.15;12.48;;;;;;;;;;5040909;28;20492;-78
2022/03/05 10:38:48;;;;;;;19.17;12.50;;;;;;;;;;5041443;28;21210;-83
2022/03/05 10:41:17;;;;;;;16.88;11.32;;;;;;;;;;5040170;28;20406;-77
2022/03/05 10:43:45;;;;;;;17.63;12.02;;;;;;;;;;5039347;28;20413;-78
2022/03/05 10:46:12;;;;;;;17.65;11.80;;;;;;;;;;5040762;28;20812;-82
2022/03/05 10:48:41;;;;;;;16.67;11.75;;;;;;;;;;5040719;28;20432;-75
2022/03/05 10:51:14;;;;;;;18.33;11.82;;;;;;;;;;5041221;28;20431;-85
2022/03/05 10:53:43;;;;;;;16.47;11.47;;;;;;;;;;5040638;28;20952;-84
2022/03/05 10:56:29;;;;;;;15.88;11.10;;;;;;;;;;5040804;28;20410;-80
2022/03/05 10:59:01;;;;;;;17.08;11.20;;;;;;;;;;5034938;28;20490;-87
2022/03/05 11:01:29;;;;;;;15.52;10.77;;;;;;;;;;5032584;28;20409;-86
2022/03/05 11:03:58;;;;;;;17.80;12.48;;;;;;;;;;5038490;28;20890;-85
2022/03/05 11:06:25;;;;;;;20.02;12.50;;;;;;;;;;5035432;28;20403;-74
2022/03/05 11:08:53;;;;;;;19.45;12.80;;;;;;;;;;5041731;28;20903;-85
2022/03/05 11:11:21;;;;;;;21.00;12.40;;;;;;;;;;5040918;28;20418;-87
2022/03/05 11:13:48;;;;;;;20.23;14.13;;;;;;;;;;5036136;28;21086;-87
2022/03/05 11:16:15;;;;;;;20.45;13.45;;;;;;;;;;5040701;28;20416;-85
2022/03/05 11:18:42;;;;;;;21.20;12.82;;;;;;;;;;5037394;28;20484;-87
2022/03/05 11:21:11;;;;;;;18.08;12.25;;;;;;;;;;5033995;28;20407;-87
2022/03/05 11:23:40;;;;;;;16.33;11.40;;;;;;;;;;5032339;28;20412;-87
2022/03/05 11:26:08;;;;;;;16.65;11.82;;;;;;;;;;5041260;28;20396;-87
2022/03/05 11:28:36;;;;;;;17.63;12.10;;;;;;;;;;5039136;28;20821;-87
2022/03/05 11:31:15;;;;;;;17.23;11.20;;;;;;;;;;5036595;28;20812;-78
2022/03/05 11:33:43;;;;;;;18.25;11.93;;;;;;;;;;5032775;28;20905;-88
2022/03/05 11:36:25;;;;;;;18.05;11.55;;;;;;;;;;5030506;28;20986;-87
2022/03/05 11:39:11;;;;;;;16.23;10.90;;;;;;;;;;5030095;28;20403;-86
2022/03/05 11:41:56;;;;;;;17.75;12.60;;;;;;;;;;5037190;28;20410;-81
2022/03/05 11:44:25;;;;;;;16.02;10.98;;;;;;;;;;5034258;28;20457;-74
2022/03/05 11:47:24;;;;;;;16.38;11.50;;;;;;;;;;5041399;28;20883;-73
2022/03/05 11:50:16;;;;;;;17.85;11.85;;;;;;;;;;5041113;28;20403;-87
2022/03/05 11:53:18;;;;;;;16.25;11.30;;;;;;;;;;5034038;28;20459;-85
2022/03/05 11:55:47;;;;;;;17.70;12.02;;;;;;;;;;5034076;28;20813;-86
2022/03/05 11:58:27;;;;;;;16.48;11.77;;;;;;;;;;5028430;28;20422;-83
2022/03/05 12:00:56;;;;;;;17.02;11.85;;;;;;;;;;5026301;28;20419;-84
2022/03/05 12:03:45;;;;;;;16.42;12.05;;;;;;;;;;5026985;28;20717;-84
2022/03/05 12:06:14;;;;;;;18.50;12.20;;;;;;;;;;5035372;28;20409;-83
2022/03/05 12:08:54;;;;;;;17.48;13.82;;;;;;;;;;5030045;28;20460;-85
2022/03/05 12:11:22;;;;;;;16.73;11.65;;;;;;;;;;5032019;28;20562;-87
2022/03/05 12:13:55;;;;;;;14.23;10.90;;;;;;;;;;5036990;28;20427;-87
2022/03/05 12:16:24;;;;;;;15.88;11.38;;;;;;;;;;5028834;28;20430;-89
2022/03/05 12:18:52;;;;;;;14.45;10.45;;;;;;;;;;5038817;28;20467;-89
2022/03/05 12:21:25;;;;;;;14.77;11.03;;;;;;;;;;5032372;28;20402;-89
2022/03/05 12:24:00;;;;;;;15.85;11.20;;;;;;;;;;5034462;28;20441;-88
2022/03/05 12:26:36;;;;;;;13.70;10.43;;;;;;;;;;5031042;28;20740;-88
2022/03/05 12:29:05;;;;;;;19.00;16.30;;;;;;;;;;5025952;28;20907;-88
2022/03/05 12:31:32;;;;;;;15.38;11.05;;;;;;;;;;5029673;28;20479;-88
2022/03/05 12:33:59;;;;;;;15.32;11.30;;;;;;;;;;5027195;28;20470;-88
2022/03/05 12:36:26;;;;;;;14.32;11.70;;;;;;;;;;5023778;28;20946;-87
2022/03/05 12:38:59;;;;;;;18.00;11.63;;;;;;;;;;5024968;28;20428;-87
2022/03/05 12:41:27;;;;;;;17.80;12.85;;;;;;;;;;5022868;28;20409;-86
2022/03/05 12:43:55;;;;;;;15.50;11.35;;;;;;;;;;5027324;28;20938;-87
2022/03/05 12:46:40;;;;;;;15.80;11.65;;;;;;;;;;5020538;28;20438;-86
2022/03/05 12:49:08;;;;;;;17.83;12.88;;;;;;;;;;5027939;28;20480;-85
2022/03/05 12:51:35;;;;;;;15.25;11.23;;;;;;;;;;5027882;28;20452;-87
2022/03/05 12:54:05;;;;;;;15.60;11.93;;;;;;;;;;5028979;28;21232;-88
2022/03/05 12:56:32;;;;;;;15.88;10.90;;;;;;;;;;5022207;28;21173;-86
2022/03/05 12:59:00;;;;;;;15.90;11.88;;;;;;;;;;5027872;28;20482;-85
2022/03/05 13:01:28;;;;;;;15.73;11.40;;;;;;;;;;5026240;28;20408;-76
2022/03/05 13:03:56;;;;;;;14.85;11.55;;;;;;;;;;5025012;28;20802;-88
2022/03/05 13:06:23;;;;;;;16.58;11.52;;;;;;;;;;5027649;28;20529;-87
2022/03/05 13:08:50;;;;;;;16.48;11.60;;;;;;;;;;5028088;28;20472;-88
2022/03/05 13:11:20;;;;;;;14.80;10.82;;;;;;;;;;5024776;28;20421;-87
2022/03/05 13:13:51;;;;;;;14.98;10.63;;;;;;;;;;5027087;28;20906;-86
2022/03/05 13:16:23;;;;;;;14.80;10.90;;;;;;;;;;5023730;28;20413;-88
2022/03/05 13:18:57;;;;;;;14.88;11.30;;;;;;;;;;5025403;28;20414;-88
2022/03/05 13:21:24;;;;;;;15.17;11.20;;;;;;;;;;5024841;28;20609;-86
2022/03/05 13:23:52;;;;;;;17.02;11.98;;;;;;;;;;5028907;28;21302;-88
2022/03/05 13:26:22;;;;;;;16.60;11.85;;;;;;;;;;5027479;28;20926;-88
2022/03/05 13:28:50;;;;;;;15.55;11.10;;;;;;;;;;5028706;28;20406;-88
2022/03/05 13:31:18;;;;;;;15.10;11.60;;;;;;;;;;5026311;28;20421;-87
2022/03/05 13:33:50;;;;;;;15.40;10.93;;;;;;;;;;5025425;28;20413;-88
2022/03/05 13:36:22;;;;;;;14.93;11.40;;;;;;;;;;5030636;28;20429;-88
2022/03/05 13:38:50;;;;;;;15.02;11.65;;;;;;;;;;5028947;28;20415;-88
2022/03/05 13:41:25;;;;;;;15.15;11.65;;;;;;;;;;5028869;28;20405;-87
2022/03/05 13:43:52;;;;;;;15.27;11.27;;;;;;;;;;5024170;28;20436;-87
2022/03/05 13:46:20;;;;;;;12.23;9.85;;;;;;;;;;5026377;28;20440;-88
2022/03/05 13:48:48;;;;;;;13.70;10.40;;;;;;;;;;5032759;28;20484;-87
2022/03/05 13:51:17;;;;;;;15.20;10.13;;;;;;;;;;5035520;28;20512;-87
2022/03/05 13:53:49;;;;;;;12.85;10.57;;;;;;;;;;5050745;28;20413;-86
2022/03/05 13:56:17;;;;;;;12.43;10.15;;;;;;;;;;5056859;28;20412;-87
2022/03/05 13:58:45;;;;;;;14.40;10.43;;;;;;;;;;5053190;28;20436;-87
2022/03/05 14:01:18;;;;;;;16.10;10.80;;;;;;;;;;5035415;28;20406;-87
2022/03/05 14:04:14;;;;;;;14.75;11.55;;;;;;;;;;5036025;28;20404;-85
2022/03/05 14:06:48;;;;;;;15.50;10.85;;;;;;;;;;5034721;28;20413;-87
2022/03/05 14:09:20;;;;;;;15.15;10.93;;;;;;;;;;5038050;28;20409;-86
2022/03/05 14:11:47;;;;;;;15.93;11.50;;;;;;;;;;5035007;28;20816;-87
2022/03/05 14:14:15;;;;;;;13.82;11.23;;;;;;;;;;5026162;28;20498;-87
2022/03/05 14:16:45;;;;;;;12.98;10.82;;;;;;;;;;5030247;28;20446;-89
2022/03/05 14:19:29;;;;;;;13.43;9.85;;;;;;;;;;5036057;28;20454;-89
2022/03/05 14:22:10;;;;;;;12.90;10.23;;;;;;;;;;5033373;28;20411;-88
2022/03/05 14:24:37;;;;;;;12.73;9.98;;;;;;;;;;5032078;28;21236;-89
2022/03/05 14:27:13;;;;;;;12.00;9.73;;;;;;;;;;5031360;28;20409;-87
2022/03/05 14:29:43;;;;;;;14.35;10.77;;;;;;;;;;5041115;28;20408;-88